Time;durP1;ratioP1;P1;durP2;ratioP2;P2;SDS_P1;SDS_P2;PMS_P1;PMS_P2;Temp;Humidity;BMP_temperature;BMP_pressure;BME280_temperature;BME280_humidity;BME280_pressure;Samples;Min_cycle;Max_cycle;Signal;HPM_P1;HPM_P2
2021/01/22 00:02:48;;;;;;;90.80;44.53;;;;;;;0.34;73.81;97704.13;2179375;81;21134;-80
2021/01/22 00:05:49;;;;;;;86.77;45.03;;;;;;;0.28;73.86;97711.62;2178611;81;21407;-80
2021/01/22 00:08:50;;;;;;;85.27;42.40;;;;;;;0.24;74.14;97720.03;2179185;81;21260;-81
2021/01/22 00:11:51;;;;;;;81.90;42.20;;;;;;;0.27;74.39;97715.01;2179386;81;21763;-81
2021/01/22 00:14:53;;;;;;;86.37;44.87;;;;;;;0.26;74.62;97709.41;2179286;81;21258;-80
2021/01/22 00:17:54;;;;;;;90.47;42.77;;;;;;;0.28;74.55;97709.05;2179145;81;21248;-80
2021/01/22 00:20:55;;;;;;;84.80;42.90;;;;;;;0.26;74.71;97705.15;2179034;81;21248;-80
2021/01/22 00:23:56;;;;;;;87.53;43.63;;;;;;;0.25;74.51;97699.55;2179448;81;21102;-79
2021/01/22 00:26:57;;;;;;;88.23;43.20;;;;;;;0.25;74.78;97707.66;2179339;81;21159;-80
2021/01/22 00:29:58;;;;;;;79.77;39.50;;;;;;;0.28;74.96;97707.77;2179528;81;21248;-79
2021/01/22 00:32:59;;;;;;;86.00;41.97;;;;;;;0.33;75.00;97703.66;2179366;81;21178;-81
2021/01/22 00:36:00;;;;;;;81.43;42.70;;;;;;;0.34;74.99;97700.69;2176899;81;21289;-81
2021/01/22 00:39:01;;;;;;;72.67;37.57;;;;;;;0.39;75.03;97695.30;2162117;82;21130;-81
2021/01/22 00:42:03;;;;;;;78.77;39.70;;;;;;;0.37;75.20;97688.82;2162602;82;21260;-80
2021/01/22 00:45:04;;;;;;;82.87;40.87;;;;;;;0.35;75.03;97689.19;2162588;82;21139;-79
2021/01/22 00:48:06;;;;;;;82.63;41.20;;;;;;;0.37;75.18;97692.67;2162685;82;21146;-81
2021/01/22 00:51:07;;;;;;;81.33;40.33;;;;;;;0.38;75.23;97692.27;2162686;82;21122;-80
2021/01/22 00:54:08;;;;;;;79.83;39.63;;;;;;;0.39;75.08;97689.75;2162441;82;21138;-81
2021/01/22 00:57:09;;;;;;;79.63;39.03;;;;;;;0.41;75.17;97684.66;2162431;82;21271;-81
2021/01/22 01:00:11;;;;;;;82.13;39.80;;;;;;;0.46;75.22;97680.55;2162459;82;21134;-80
2021/01/22 01:03:12;;;;;;;76.57;40.23;;;;;;;0.53;75.34;97674.38;2162671;82;21192;-80
2021/01/22 01:06:13;;;;;;;78.47;39.50;;;;;;;0.59;75.29;97669.44;2162000;82;21550;-81
2021/01/22 01:09:14;;;;;;;75.50;37.73;;;;;;;0.60;75.06;97662.61;2161842;82;21264;-83
2021/01/22 01:12:15;;;;;;;74.50;37.07;;;;;;;0.55;75.00;97653.47;2161219;82;21367;-82
2021/01/22 01:15:16;;;;;;;77.23;38.70;;;;;;;0.53;74.90;97647.42;2161867;82;21118;-81
2021/01/22 01:18:17;;;;;;;70.90;37.90;;;;;;;0.51;74.95;97643.93;2161124;82;21229;-80
2021/01/22 01:21:18;;;;;;;66.60;35.07;;;;;;;0.47;74.81;97636.95;2161113;82;21119;-80
2021/01/22 01:24:19;;;;;;;73.43;37.20;;;;;;;0.41;74.83;97635.48;2161528;82;21237;-79
2021/01/22 01:27:20;;;;;;;72.73;38.33;;;;;;;0.36;74.97;97629.73;2161635;82;21102;-79
2021/01/22 01:30:21;;;;;;;365.67;223.43;;;;;;;0.39;77.54;97629.83;2162500;82;21154;-81
2021/01/22 01:33:23;;;;;;;202.83;115.60;;;;;;;2.81;86.97;97616.84;2162307;82;21218;-80
2021/01/22 01:36:24;;;;;;;73.53;39.23;;;;;;;7.24;76.36;97592.53;2164144;81;21161;-80
2021/01/22 01:39:26;;;;;;;67.10;36.73;;;;;;;6.26;66.42;97582.31;2172553;82;21149;-81
2021/01/22 01:42:27;;;;;;;63.03;32.67;;;;;;;4.64;65.48;97582.91;2172326;82;21150;-80
2021/01/22 01:45:29;;;;;;;68.63;36.63;;;;;;;3.42;66.84;97586.31;2172244;82;21256;-81
2021/01/22 01:48:30;;;;;;;66.70;36.37;;;;;;;2.66;68.24;97593.72;2172522;82;21149;-81
2021/01/22 01:51:32;;;;;;;65.30;34.40;;;;;;;2.12;69.32;97600.56;2172293;82;21293;-80
2021/01/22 01:54:33;;;;;;;63.03;33.17;;;;;;;1.74;70.19;97607.30;2171298;82;21149;-80
2021/01/22 01:57:34;;;;;;;66.13;35.07;;;;;;;1.47;70.89;97603.13;2171744;82;21159;-80
2021/01/22 02:00:35;;;;;;;69.20;35.27;;;;;;;1.26;71.38;97593.12;2172164;82;21256;-79
2021/01/22 02:03:36;;;;;;;60.03;32.90;;;;;;;1.10;71.91;97589.66;2171968;82;21134;-79
2021/01/22 02:06:37;;;;;;;63.77;33.30;;;;;;;0.95;72.07;97590.50;2171368;82;21756;-80
2021/01/22 02:09:38;;;;;;;58.53;31.20;;;;;;;0.78;72.42;97581.39;2172623;82;21130;-80
2021/01/22 02:12:39;;;;;;;63.40;32.07;;;;;;;0.62;72.60;97574.93;2172754;82;21174;-81
2021/01/22 02:15:40;;;;;;;64.60;33.17;;;;;;;0.50;73.12;97572.86;2172516;82;21122;-81
2021/01/22 02:18:42;;;;;;;57.83;30.83;;;;;;;0.43;73.54;97570.06;2172330;82;21170;-80
2021/01/22 02:21:43;;;;;;;66.00;33.60;;;;;;;0.37;73.92;97566.02;2172313;82;21200;-81
2021/01/22 02:24:44;;;;;;;60.80;31.87;;;;;;;0.34;74.32;97560.79;2172764;82;21261;-81
2021/01/22 02:27:47;;;;;;;59.73;31.67;;;;;;;0.35;74.44;97562.13;2172372;82;21118;-81
2021/01/22 02:30:48;;;;;;;62.87;32.40;;;;;;;0.34;74.46;97560.79;2172560;82;21245;-79
2021/01/22 02:33:49;;;;;;;65.07;35.03;;;;;;;0.34;74.72;97563.36;2172472;82;21405;-80
2021/01/22 02:36:50;;;;;;;62.53;32.33;;;;;;;0.35;74.96;97565.09;2174027;82;21169;-81
2021/01/22 02:39:51;;;;;;;56.87;29.97;;;;;;;0.36;75.04;97565.56;2178688;81;21118;-80
2021/01/22 02:42:52;;;;;;;58.80;31.00;;;;;;;0.38;75.20;97556.21;2179107;81;21130;-79
2021/01/22 02:45:53;;;;;;;59.00;30.53;;;;;;;0.39;75.31;97547.69;2179292;81;21126;-82
2021/01/22 02:48:54;;;;;;;119.90;56.60;;;;;;;0.38;75.39;97536.55;2179626;81;21129;-81
2021/01/22 02:51:58;;;;;;;61.50;30.43;;;;;;;0.45;75.51;97544.89;2179625;81;21169;-79
2021/01/22 02:54:59;;;;;;;59.13;27.90;;;;;;;0.43;75.55;97528.58;2178854;82;21396;-80
2021/01/22 02:58:00;;;;;;;57.57;29.60;;;;;;;0.46;75.70;97522.25;2179874;81;21268;-81
2021/01/22 03:01:01;;;;;;;49.17;26.87;;;;;;;0.48;75.92;97512.89;2179623;81;21383;-78
2021/01/22 03:04:02;;;;;;;48.70;25.23;;;;;;;0.53;75.88;97504.91;2179207;81;21106;-79
2021/01/22 03:07:04;;;;;;;54.53;28.57;;;;;;;0.57;75.89;97496.89;2179242;81;21416;-80
2021/01/22 03:10:05;;;;;;;46.97;26.60;;;;;;;0.60;75.97;97501.70;2179146;82;21138;-79
2021/01/22 03:13:06;;;;;;;64.37;28.57;;;;;;;0.65;75.95;97503.11;2179454;81;21201;-80
2021/01/22 03:16:07;;;;;;;52.37;25.00;;;;;;;0.70;76.02;97500.67;2179386;81;21129;-81
2021/01/22 03:19:09;;;;;;;59.43;28.43;;;;;;;0.75;76.15;97503.84;2179603;81;21149;-81
2021/01/22 03:22:10;;;;;;;47.13;24.87;;;;;;;0.81;75.97;97509.15;2178777;81;21094;-79
2021/01/22 03:25:12;;;;;;;50.13;25.07;;;;;;;0.87;75.95;97504.22;2179029;81;21145;-79
2021/01/22 03:28:15;;;;;;;43.10;22.93;;;;;;;0.90;75.90;97500.86;2178936;81;21268;-80
2021/01/22 03:31:16;;;;;;;39.30;22.30;;;;;;;0.94;75.97;97494.98;2178252;81;21133;-78
2021/01/22 03:34:18;;;;;;;44.17;22.70;;;;;;;0.98;76.21;97496.80;2177987;82;21046;-78
2021/01/22 03:37:19;;;;;;;48.20;23.37;;;;;;;0.99;75.90;97489.55;2178468;81;21268;-80
2021/01/22 03:40:20;;;;;;;41.67;22.67;;;;;;;1.03;76.06;97489.22;2178642;81;21122;-79
2021/01/22 03:43:22;;;;;;;36.93;20.27;;;;;;;1.07;76.07;97487.19;2179241;81;21153;-79
2021/01/22 03:46:23;;;;;;;44.27;22.10;;;;;;;1.09;76.04;97486.41;2179404;82;21153;-79
2021/01/22 03:49:24;;;;;;;34.03;18.43;;;;;;;1.13;75.94;97485.66;2179418;81;21137;-79
2021/01/22 03:52:27;;;;;;;36.70;20.23;;;;;;;1.16;75.98;97480.59;2178817;81;21468;-79
2021/01/22 03:55:28;;;;;;;43.50;23.23;;;;;;;1.19;75.97;97477.23;2179086;81;21150;-79
2021/01/22 03:58:29;;;;;;;39.73;20.97;;;;;;;1.23;76.02;97477.36;2179187;81;21102;-79
2021/01/22 04:01:31;;;;;;;33.30;19.67;;;;;;;1.26;75.89;97480.02;2179138;81;21195;-79
2021/01/22 04:04:32;;;;;;;31.17;17.73;;;;;;;1.30;75.88;97470.68;2178736;82;21138;-79
2021/01/22 04:07:33;;;;;;;30.03;17.00;;;;;;;1.32;75.79;97461.30;2179025;81;21408;-78
2021/01/22 04:10:34;;;;;;;34.00;19.53;;;;;;;1.34;75.79;97454.91;2178720;81;21401;-80
2021/01/22 04:13:35;;;;;;;32.77;18.90;;;;;;;1.35;75.80;97448.95;2178831;81;21177;-80
2021/01/22 04:16:36;;;;;;;31.90;17.57;;;;;;;1.36;75.72;97445.54;2179018;81;21134;-82
2021/01/22 04:19:37;;;;;;;29.10;16.00;;;;;;;1.36;75.75;97441.69;2178820;81;21149;-80
2021/01/22 04:22:39;;;;;;;30.20;16.00;;;;;;;1.36;75.79;97439.11;2178615;81;21179;-80
2021/01/22 04:25:40;;;;;;;38.20;17.00;;;;;;;1.42;75.77;97440.14;2177839;81;21098;-80
2021/01/22 04:28:41;;;;;;;30.57;15.83;;;;;;;1.43;75.64;97434.16;2178098;81;21169;-81
2021/01/22 04:31:42;;;;;;;28.70;16.47;;;;;;;1.49;75.53;97431.74;2177728;81;21197;-80
2021/01/22 04:34:43;;;;;;;28.67;14.37;;;;;;;1.51;75.43;97439.08;2177239;82;21286;-78
2021/01/22 04:37:44;;;;;;;26.00;15.33;;;;;;;1.54;75.38;97429.28;2177206;81;21273;-79
2021/01/22 04:40:45;;;;;;;23.67;14.03;;;;;;;1.56;75.31;97427.62;2177799;81;21228;-78
2021/01/22 04:43:46;;;;;;;28.13;14.73;;;;;;;1.59;75.28;97424.70;2176994;81;21266;-79
2021/01/22 04:46:47;;;;;;;24.80;13.43;;;;;;;1.65;75.26;97420.13;2176515;81;21247;-81
2021/01/22 04:49:48;;;;;;;23.83;14.30;;;;;;;1.71;75.22;97411.27;2175904;81;21292;-80
2021/01/22 04:52:49;;;;;;;25.57;13.63;;;;;;;1.75;75.05;97409.25;2175688;81;21277;-78
2021/01/22 04:55:50;;;;;;;19.00;12.50;;;;;;;1.75;75.00;97408.38;2175342;81;21946;-80
2021/01/22 04:58:51;;;;;;;25.20;14.77;;;;;;;1.77;74.92;97412.72;2175076;81;21253;-78
2021/01/22 05:01:52;;;;;;;21.53;12.87;;;;;;;1.80;75.00;97397.36;2175448;81;21138;-78
2021/01/22 05:04:53;;;;;;;21.30;12.23;;;;;;;1.84;74.84;97402.16;2176273;81;21260;-79
2021/01/22 05:07:55;;;;;;;25.53;12.43;;;;;;;1.84;74.80;97398.30;2176345;81;21938;-79
2021/01/22 05:10:56;;;;;;;23.70;12.63;;;;;;;1.86;74.84;97397.50;2177149;81;21126;-81
2021/01/22 05:13:57;;;;;;;22.87;12.23;;;;;;;1.89;74.85;97396.70;2176777;81;21367;-78
2021/01/22 05:16:58;;;;;;;20.47;11.40;;;;;;;1.91;74.76;97394.61;2176285;81;21611;-78
2021/01/22 05:19:59;;;;;;;25.20;13.63;;;;;;;1.92;74.72;97394.19;2176272;81;21688;-79
2021/01/22 05:23:00;;;;;;;22.83;11.00;;;;;;;1.92;74.66;97399.34;2176734;81;21122;-79
2021/01/22 05:26:02;;;;;;;26.70;11.87;;;;;;;1.93;74.68;97388.63;2176126;81;21233;-80
2021/01/22 05:29:04;;;;;;;23.53;12.30;;;;;;;1.90;74.65;97395.45;2175774;81;21256;-79
2021/01/22 05:32:05;;;;;;;21.47;11.63;;;;;;;1.91;74.72;97393.73;2176064;81;21299;-79
2021/01/22 05:35:06;;;;;;;23.13;11.17;;;;;;;1.91;74.71;97389.88;2176008;81;21280;-79
2021/01/22 05:38:07;;;;;;;20.57;11.37;;;;;;;1.93;74.74;97380.91;2175751;81;21284;-80
2021/01/22 05:41:08;;;;;;;64.63;33.90;;;;;;;1.95;74.78;97384.39;2176283;81;21869;-79
2021/01/22 05:44:09;;;;;;;23.90;12.17;;;;;;;1.94;74.83;97377.50;2176207;81;21292;-78
2021/01/22 05:47:10;;;;;;;21.10;10.30;;;;;;;1.95;74.75;97371.52;2176693;81;21125;-78
2021/01/22 05:50:11;;;;;;;15.77;10.53;;;;;;;1.98;74.87;97370.30;2176375;81;21268;-80
2021/01/22 05:53:12;;;;;;;20.07;11.67;;;;;;;1.98;74.75;97368.59;2175956;81;21696;-80
2021/01/22 05:56:13;;;;;;;20.53;10.63;;;;;;;1.96;74.74;97371.97;2175026;81;21261;-80
2021/01/22 05:59:15;;;;;;;23.97;10.70;;;;;;;1.94;74.71;97369.36;2174440;81;21252;-80
2021/01/22 06:02:16;;;;;;;18.00;11.57;;;;;;;1.95;74.73;97367.66;2175361;82;21265;-79
2021/01/22 06:05:18;;;;;;;22.40;12.23;;;;;;;1.92;74.70;97360.73;2176444;81;21607;-78
2021/01/22 06:08:20;;;;;;;23.03;11.73;;;;;;;2.07;75.78;97369.20;2175895;82;21267;-79
2021/01/22 06:11:21;;;;;;;23.83;11.60;;;;;;;2.05;74.79;97371.75;2175386;81;21259;-79
2021/01/22 06:14:22;;;;;;;20.33;12.20;;;;;;;1.98;74.88;97370.30;2176429;81;21704;-79
2021/01/22 06:17:23;;;;;;;16.83;11.27;;;;;;;1.94;74.91;97366.78;2175301;81;21142;-79
2021/01/22 06:20:24;;;;;;;22.57;11.63;;;;;;;1.91;75.08;97364.15;2176147;81;21249;-80
2021/01/22 06:23:25;;;;;;;23.47;12.30;;;;;;;2.01;75.26;97358.36;2176141;82;21276;-80
2021/01/22 06:26:26;;;;;;;20.67;11.80;;;;;;;2.02;74.93;97369.53;2176447;82;21141;-79
2021/01/22 06:29:27;;;;;;;19.37;11.33;;;;;;;1.99;74.98;97361.33;2176864;81;21076;-80
2021/01/22 06:32:28;;;;;;;26.47;13.33;;;;;;;1.96;75.13;97356.53;2176046;81;21291;-81
2021/01/22 06:35:29;;;;;;;32.13;13.70;;;;;;;1.97;75.14;97364.70;2176125;81;21259;-79
2021/01/22 06:38:32;;;;;;;27.13;11.80;;;;;;;2.03;75.56;97361.84;2167426;81;21182;-80
2021/01/22 06:41:34;;;;;;;26.40;11.87;;;;;;;2.03;75.13;97354.13;2158493;82;21126;-80
2021/01/22 06:44:35;;;;;;;25.23;11.97;;;;;;;2.04;75.20;97349.42;2158172;82;21146;-79
2021/01/22 06:47:36;;;;;;;22.80;11.57;;;;;;;2.07;75.26;97343.47;2159240;82;21102;-79
2021/01/22 06:50:37;;;;;;;22.40;12.07;;;;;;;2.15;75.34;97348.36;2158986;82;21139;-79
2021/01/22 06:53:38;;;;;;;22.53;12.53;;;;;;;2.24;75.34;97349.41;2159018;82;21300;-80
2021/01/22 06:56:39;;;;;;;22.23;11.53;;;;;;;2.34;75.29;97346.61;2158564;82;21257;-79
2021/01/22 06:59:40;;;;;;;19.87;11.33;;;;;;;2.46;75.19;97345.98;2158397;82;21256;-79
2021/01/22 07:02:42;;;;;;;23.60;11.90;;;;;;;2.56;74.99;97342.74;2158179;82;21249;-78
2021/01/22 07:05:43;;;;;;;22.80;10.70;;;;;;;2.66;74.92;97343.81;2157409;82;21241;-79
2021/01/22 07:08:44;;;;;;;19.20;12.00;;;;;;;2.76;74.81;97347.02;2157415;82;21257;-80
2021/01/22 07:11:45;;;;;;;18.77;11.13;;;;;;;2.84;74.62;97339.00;2157057;82;21974;-81
2021/01/22 07:14:46;;;;;;;23.97;12.67;;;;;;;2.94;74.62;97333.59;2156874;82;21354;-80
2021/01/22 07:17:48;;;;;;;25.27;13.00;;;;;;;3.02;74.33;97330.72;2157305;82;21264;-80
2021/01/22 07:20:49;;;;;;;19.07;10.40;;;;;;;3.03;74.18;97328.17;2157706;82;21261;-79
2021/01/22 07:23:52;;;;;;;20.20;10.60;;;;;;;3.06;73.98;97326.06;2158178;82;21431;-79
2021/01/22 07:26:53;;;;;;;19.87;11.30;;;;;;;3.08;73.88;97327.82;2159365;82;21233;-80
2021/01/22 07:29:55;;;;;;;18.93;10.93;;;;;;;3.11;73.73;97325.30;2158510;82;21273;-81
2021/01/22 07:32:56;;;;;;;16.03;10.57;;;;;;;3.14;73.67;97329.21;2158018;82;21162;-79
2021/01/22 07:35:57;;;;;;;19.93;11.13;;;;;;;3.17;73.50;97330.97;2157843;82;21131;-79
2021/01/22 07:38:58;;;;;;;19.80;11.60;;;;;;;3.19;73.38;97332.73;2157957;81;21293;-78
2021/01/22 07:41:59;;;;;;;21.83;12.70;;;;;;;3.24;73.41;97334.52;2159205;82;21277;-80
2021/01/22 07:45:00;;;;;;;18.40;12.00;;;;;;;3.27;73.28;97334.16;2158649;82;21269;-81
2021/01/22 07:48:01;;;;;;;21.47;12.17;;;;;;;3.29;73.16;97334.17;2158294;82;21237;-81
2021/01/22 07:51:02;;;;;;;19.67;11.77;;;;;;;3.31;73.13;97331.20;2158832;82;21241;-80
2021/01/22 07:54:03;;;;;;;22.47;13.43;;;;;;;3.35;73.00;97329.98;2159093;82;21143;-81
2021/01/22 07:57:06;;;;;;;22.17;12.23;;;;;;;3.40;72.99;97316.73;2158733;82;21252;-79
2021/01/22 08:00:07;;;;;;;19.90;11.70;;;;;;;3.48;72.90;97313.02;2158410;82;21110;-81
2021/01/22 08:03:09;;;;;;;20.50;12.80;;;;;;;3.55;72.87;97314.84;2158254;82;21292;-79
2021/01/22 08:06:10;;;;;;;19.43;12.03;;;;;;;3.65;72.64;97303.81;2158213;82;21277;-82
2021/01/22 08:09:12;;;;;;;20.67;12.57;;;;;;;3.73;72.65;97306.50;2158050;82;21277;-80
2021/01/22 08:12:14;;;;;;;21.50;11.50;;;;;;;3.84;72.43;97305.80;2159298;82;21453;-80
2021/01/22 08:15:15;;;;;;;21.83;12.20;;;;;;;3.93;72.14;97315.38;2158756;82;21257;-83
2021/01/22 08:18:16;;;;;;;25.30;13.43;;;;;;;4.00;72.04;97306.00;2158815;82;21126;-79
2021/01/22 08:21:18;;;;;;;21.07;13.87;;;;;;;4.09;71.93;97309.56;2158415;82;21272;-80
2021/01/22 08:24:19;;;;;;;24.50;14.13;;;;;;;4.22;71.88;97315.75;2158355;82;21253;-79
2021/01/22 08:27:20;;;;;;;29.33;15.47;;;;;;;4.33;71.60;97306.84;2159040;82;21579;-80
2021/01/22 08:30:21;;;;;;;23.73;14.30;;;;;;;4.42;71.46;97308.27;2158213;82;21249;-78
2021/01/22 08:33:22;;;;;;;28.10;15.10;;;;;;;4.52;71.16;97298.48;2157957;82;21332;-80
2021/01/22 08:36:23;;;;;;;34.83;17.53;;;;;;;4.68;71.23;97300.80;2158551;82;21261;-80
2021/01/22 08:39:25;;;;;;;29.00;16.03;;;;;;;4.82;70.94;97301.80;2168872;81;21344;-81
2021/01/22 08:42:28;;;;;;;27.70;14.70;;;;;;;4.95;70.72;97295.89;2176591;81;21106;-79
2021/01/22 08:45:29;;;;;;;28.37;14.33;;;;;;;5.07;70.26;97286.95;2176485;81;21268;-81
2021/01/22 08:48:30;;;;;;;25.67;15.03;;;;;;;5.20;70.22;97290.92;2175866;81;21106;-79
2021/01/22 08:51:36;;;;;;;23.77;14.23;;;;;;;5.36;69.98;97282.03;2175851;81;21547;-79
2021/01/22 08:54:35;;;;;;;23.20;13.30;;;;;;;5.58;69.66;97281.75;2175632;82;21272;-81
2021/01/22 08:57:36;;;;;;;24.50;14.80;;;;;;;5.82;69.04;97284.05;2176406;81;21285;-81
2021/01/22 09:00:37;;;;;;;22.23;13.53;;;;;;;5.94;68.93;97286.73;2175716;81;21280;-80
2021/01/22 09:03:40;;;;;;;21.80;13.20;;;;;;;6.04;68.51;97297.15;2175618;82;21264;-80
2021/01/22 09:06:41;;;;;;;19.77;11.73;;;;;;;6.17;68.16;97295.94;2176100;81;21542;-80
2021/01/22 09:09:42;;;;;;;21.77;12.53;;;;;;;6.25;67.80;97292.52;2176216;81;21291;-80
2021/01/22 09:12:44;;;;;;;22.97;12.70;;;;;;;6.36;67.53;97284.80;2175870;81;21297;-79
2021/01/22 09:15:45;;;;;;;21.63;12.83;;;;;;;6.61;67.43;97281.41;2176255;82;21255;-81
2021/01/22 09:18:46;;;;;;;25.60;13.53;;;;;;;6.73;67.12;97287.48;2174948;82;21126;-80
2021/01/22 09:21:47;;;;;;;19.93;11.73;;;;;;;6.73;67.12;97287.48;2174785;81;21297;-80
2021/01/22 09:24:48;;;;;;;21.53;12.77;;;;;;;6.80;66.94;97296.58;2175295;81;21260;-81
2021/01/22 09:27:49;;;;;;;18.00;10.87;;;;;;;6.90;66.60;97289.24;2176178;82;21244;-81
2021/01/22 09:30:52;;;;;;;20.37;12.63;;;;;;;7.00;65.96;97281.08;2176776;81;21249;-81
2021/01/22 09:33:55;;;;;;;18.75;12.18;;;;;;;7.15;66.33;97278.92;2176680;82;21464;-82
2021/01/22 09:36:56;;;;;;;18.43;11.40;;;;;;;7.29;65.96;97268.97;2175745;81;21248;-80
2021/01/22 09:39:57;;;;;;;18.23;11.50;;;;;;;7.41;65.35;97272.42;2164865;81;21517;-80
2021/01/22 09:42:58;;;;;;;21.37;11.17;;;;;;;7.47;65.18;97270.69;2158435;82;21265;-80
2021/01/22 09:45:59;;;;;;;21.57;12.17;;;;;;;7.50;65.05;97273.71;2158728;82;21832;-82
2021/01/22 09:49:00;;;;;;;23.30;12.50;;;;;;;7.56;65.13;97273.70;2159107;82;21233;-80
2021/01/22 09:52:01;;;;;;;17.93;11.80;;;;;;;7.62;64.85;97274.56;2159390;82;21293;-80
2021/01/22 09:55:03;;;;;;;19.60;11.87;;;;;;;7.71;64.74;97270.22;2159082;82;21257;-80
2021/01/22 09:58:04;;;;;;;22.97;12.73;;;;;;;7.78;64.62;97271.93;2159447;82;21269;-79
2021/01/22 10:01:05;;;;;;;24.40;13.83;;;;;;;7.85;64.23;97268.48;2159254;82;21347;-80
2021/01/22 10:04:06;;;;;;;22.63;13.00;;;;;;;7.84;63.74;97270.22;2159829;82;21261;-78
2021/01/22 10:07:07;;;;;;;21.53;13.30;;;;;;;7.83;63.85;97262.43;2159642;82;21118;-79
2021/01/22 10:10:09;;;;;;;25.20;14.03;;;;;;;7.86;63.85;97254.63;2159077;82;21249;-79
2021/01/22 10:13:10;;;;;;;24.47;14.23;;;;;;;7.88;63.79;97251.59;2159201;82;21194;-78
2021/01/22 10:16:11;;;;;;;28.47;14.67;;;;;;;7.88;63.77;97250.30;2158968;82;21284;-79
2021/01/22 10:19:12;;;;;;;24.80;14.80;;;;;;;7.92;63.62;97251.58;2159070;82;21551;-79
2021/01/22 10:22:13;;;;;;;23.63;14.40;;;;;;;7.89;63.58;97248.98;2158507;82;21261;-80
2021/01/22 10:25:14;;;;;;;27.37;14.67;;;;;;;7.90;63.84;97242.06;2158383;82;21347;-79
2021/01/22 10:28:15;;;;;;;32.97;15.70;;;;;;;7.91;63.62;97237.29;2158179;82;21261;-80
2021/01/22 10:31:16;;;;;;;20.60;13.03;;;;;;;7.93;63.83;97246.81;2158433;82;21257;-77
2021/01/22 10:34:17;;;;;;;28.63;14.73;;;;;;;7.97;63.59;97239.87;2158797;82;21655;-80
2021/01/22 10:37:21;;;;;;;27.10;13.37;;;;;;;8.04;63.53;97249.80;2158793;82;21282;-80
2021/01/22 10:40:22;;;;;;;32.07;16.83;;;;;;;8.08;63.18;97245.89;2170769;81;21291;-81
2021/01/22 10:43:23;;;;;;;58.87;19.93;;;;;;;8.12;63.73;97241.11;2174943;81;21255;-80
2021/01/22 10:46:24;;;;;;;41.93;18.10;;;;;;;8.19;63.64;97241.52;2175315;81;21272;-79
2021/01/22 10:49:25;;;;;;;39.13;17.37;;;;;;;8.28;63.45;97250.56;2175517;81;21567;-80
2021/01/22 10:52:26;;;;;;;44.00;17.77;;;;;;;8.38;63.65;97242.76;2175684;82;21292;-78
2021/01/22 10:55:27;;;;;;;104.23;24.33;;;;;;;8.51;63.56;97230.12;2175129;81;21272;-79
2021/01/22 10:58:28;;;;;;;40.47;16.23;;;;;;;8.60;63.27;97232.66;2175196;82;21296;-79
2021/01/22 11:01:29;;;;;;;37.00;16.57;;;;;;;8.50;63.09;97228.39;2175350;81;21241;-80
2021/01/22 11:04:31;;;;;;;33.13;15.63;;;;;;;8.41;63.23;97231.91;2175683;81;21268;-79
2021/01/22 11:07:32;;;;;;;32.83;16.37;;;;;;;8.35;63.35;97227.17;2175974;81;21813;-79
2021/01/22 11:10:33;;;;;;;30.43;16.10;;;;;;;8.39;63.22;97240.15;2176749;81;21276;-79
2021/01/22 11:13:34;;;;;;;32.03;16.50;;;;;;;8.58;63.09;97233.11;2176184;82;21307;-79
2021/01/22 11:16:35;;;;;;;28.90;15.30;;;;;;;8.97;62.71;97233.31;2176065;81;21264;-81
2021/01/22 11:19:36;;;;;;;32.33;17.37;;;;;;;9.33;61.88;97220.42;2175694;81;21118;-80
2021/01/22 11:22:37;;;;;;;34.37;18.00;;;;;;;9.53;61.70;97225.00;2176113;81;21370;-79
2021/01/22 11:25:38;;;;;;;33.77;17.40;;;;;;;9.70;61.35;97214.88;2175470;81;21257;-79
2021/01/22 11:28:39;;;;;;;30.90;16.43;;;;;;;9.80;61.04;97208.69;2175960;81;21272;-80
2021/01/22 11:31:40;;;;;;;25.67;14.90;;;;;;;9.91;60.69;97209.44;2175343;81;21252;-81
2021/01/22 11:34:42;;;;;;;22.00;13.67;;;;;;;9.99;60.75;97212.81;2174996;81;21256;-80
2021/01/22 11:37:44;;;;;;;27.83;13.90;;;;;;;9.97;60.26;97201.98;2175614;82;21851;-81
2021/01/22 11:40:45;;;;;;;25.50;15.37;;;;;;;9.84;60.17;97193.44;2163118;81;21277;-80
2021/01/22 11:43:46;;;;;;;24.27;15.37;;;;;;;9.70;60.24;97204.46;2158184;82;21265;-78
2021/01/22 11:46:47;;;;;;;27.60;15.53;;;;;;;9.56;60.64;97201.56;2158703;82;21245;-80
2021/01/22 11:49:48;;;;;;;43.63;23.23;;;;;;;9.51;60.83;97208.97;2158179;82;21107;-80
2021/01/22 11:52:49;;;;;;;43.17;23.03;;;;;;;9.40;60.82;97201.70;2158356;82;21292;-80
2021/01/22 11:55:50;;;;;;;34.50;18.37;;;;;;;9.28;60.85;97203.98;2158638;82;21114;-79
2021/01/22 11:58:51;;;;;;;31.00;16.77;;;;;;;9.22;60.98;97198.83;2158047;82;21277;-82
2021/01/22 12:01:52;;;;;;;27.03;13.43;;;;;;;9.20;61.20;97204.05;2158857;82;21277;-79
2021/01/22 12:04:53;;;;;;;22.40;13.60;;;;;;;9.19;61.00;97194.95;2158335;82;21269;-79
2021/01/22 12:07:54;;;;;;;23.70;13.50;;;;;;;9.20;61.05;97194.94;2158220;82;21257;-81
2021/01/22 12:10:55;;;;;;;30.97;14.53;;;;;;;9.23;60.90;97194.91;2158082;82;21843;-80
2021/01/22 12:13:56;;;;;;;24.67;13.00;;;;;;;9.27;60.94;97186.63;2158637;82;21281;-79
2021/01/22 12:16:58;;;;;;;24.27;13.33;;;;;;;9.22;60.70;97182.77;2158257;82;21269;-80
2021/01/22 12:19:59;;;;;;;26.93;14.50;;;;;;;9.19;60.84;97188.00;2158579;82;21567;-80
2021/01/22 12:23:00;;;;;;;25.13;14.10;;;;;;;9.20;60.84;97192.33;2158605;82;21265;-79
2021/01/22 12:26:01;;;;;;;24.43;13.23;;;;;;;9.25;60.68;97194.90;2158222;82;21606;-80
2021/01/22 12:29:02;;;;;;;24.43;12.93;;;;;;;9.29;60.84;97188.78;2157720;82;21241;-80
2021/01/22 12:32:03;;;;;;;26.13;13.20;;;;;;;9.34;60.75;97196.11;2156752;82;21198;-79
2021/01/22 12:35:04;;;;;;;29.70;12.87;;;;;;;9.36;60.96;97198.70;2157783;82;21264;-80
2021/01/22 12:38:05;;;;;;;30.57;15.07;;;;;;;9.31;60.89;97188.77;2157647;82;21760;-81
2021/01/22 12:41:07;;;;;;;30.60;16.07;;;;;;;9.26;61.10;97197.92;2170783;81;21288;-79
2021/01/22 12:44:08;;;;;;;34.90;17.47;;;;;;;9.17;61.07;97192.80;2175340;81;21816;-80
2021/01/22 12:47:09;;;;;;;42.53;25.07;;;;;;;9.05;61.15;97199.41;2175823;81;21233;-81
2021/01/22 12:50:10;;;;;;;41.30;21.50;;;;;;;8.93;61.47;97201.24;2175415;81;21221;-79
2021/01/22 12:53:11;;;;;;;34.60;18.47;;;;;;;8.87;61.63;97201.29;2174572;81;21158;-79
2021/01/22 12:56:12;;;;;;;35.37;17.07;;;;;;;8.80;61.78;97202.65;2175444;81;21771;-78
2021/01/22 12:59:13;;;;;;;36.47;16.37;;;;;;;8.74;62.06;97208.76;2175734;81;21252;-79
2021/01/22 13:02:14;;;;;;;30.23;16.73;;;;;;;8.69;62.30;97211.83;2175031;81;21241;-79
2021/01/22 13:05:15;;;;;;;33.80;15.23;;;;;;;8.68;62.49;97204.04;2173480;81;21252;-80
2021/01/22 13:08:17;;;;;;;37.83;17.57;;;;;;;8.59;62.38;97211.43;2173714;81;21489;-80
2021/01/22 13:11:18;;;;;;;30.97;12.53;;;;;;;9.03;64.29;97204.63;2174445;81;21295;-79
2021/01/22 21:44:01;;;;;;;49.10;27.30;;;;;;;2.21;79.99;97306.01;2273938;77;23237;-81
2021/01/22 21:47:02;;;;;;;46.50;26.70;;;;;;;2.11;79.72;97310.10;2270915;78;21244;-81
2021/01/22 21:50:03;;;;;;;50.67;26.63;;;;;;;2.05;79.11;97308.69;2270408;78;21232;-80
2021/01/22 21:53:04;;;;;;;47.33;25.90;;;;;;;1.99;79.23;97312.84;2270319;78;21255;-80
2021/01/22 21:56:05;;;;;;;47.13;25.43;;;;;;;1.94;79.20;97306.73;2270742;78;21141;-80
2021/01/22 21:59:07;;;;;;;45.33;27.30;;;;;;;1.90;79.14;97310.53;2271735;78;21395;-79
2021/01/22 22:02:08;;;;;;;48.67;27.57;;;;;;;1.89;79.32;97302.78;2271248;78;21271;-80
2021/01/22 22:05:09;;;;;;;51.33;27.47;;;;;;;1.91;79.56;97299.81;2270990;78;21504;-80
2021/01/22 22:08:10;;;;;;;53.80;29.00;;;;;;;1.89;79.64;97288.20;2271807;78;21114;-79
2021/01/22 22:11:11;;;;;;;49.77;29.23;;;;;;;1.90;79.86;97283.93;2271777;78;21152;-80
2021/01/22 22:14:12;;;;;;;50.57;28.90;;;;;;;1.91;79.90;97282.67;2271801;78;21399;-81
2021/01/22 22:17:16;;;;;;;49.80;28.23;;;;;;;1.96;80.19;97284.05;2271760;78;21123;-81
2021/01/22 22:20:17;;;;;;;46.93;26.63;;;;;;;2.00;80.04;97287.56;2271695;78;21133;-81
2021/01/22 22:23:26;;;;;;;44.37;25.90;;;;;;;1.98;80.01;97282.80;2271867;78;21157;-81
2021/01/22 22:26:29;;;;;;;44.37;25.57;;;;;;;1.93;79.56;97281.42;2271795;78;21176;-80
2021/01/22 22:29:30;;;;;;;44.90;26.30;;;;;;;1.85;79.28;97287.70;2272199;78;21097;-80
2021/01/22 22:32:31;;;;;;;47.67;25.57;;;;;;;1.76;79.54;97287.50;2271851;78;21359;-80